ΕΜΥ, Εθνική Μετεωρολογική Υπηρεσία - Δελτία Καιρού, Προγνώσεις

ΑΕΡΟΝΑΥΤΙΛΙΑ

GREEK AIRPORTS CODES

TAF LGTT 201300Z 2015/2024 01015G25KT 9999 FEW030 BECMG 2018/2020 34012KT=

EUROPEAN AIRPORTS CODES

LCLK 201400Z 22010KT 9999 FEW035TCU 31/20 Q1010 NOSIG=